AirNav   Duncan Aviation - Near you to keep you flying
 
 499 users online  

47WI Oakbrook Airport
Fort Atkinson, Wisconsin, USA

GOING TO FORT ATKINSON?


FAA INFORMATION EFFECTIVE 26 JANUARY 2023

Location

FAA Identifier: 47WI
Lat/Long: 42-53-24.0250N 088-48-29.3820W
42-53.400417N 088-48.489700W
42.8900069,-88.8081617
(estimated)
Elevation: 840 ft. / 256 m (estimated)
Variation: 00W (1985)
From city: 3 miles SE of FORT ATKINSON, WI
Time zone: UTC -6 (UTC -5 during Daylight Saving Time)
Zip code: 53538

Airport Operations

Airport use: Private use. Permission required prior to landing
Activation date: 08/1979
Control tower: no
ARTCC: CHICAGO CENTER
FSS: GREEN BAY FLIGHT SERVICE STATION
Attendance: UNATNDD
Wind indicator: yes
Segmented circle: no

Airport Communications

WX AWOS-3 at RYV (17 nm N): 119.975 (920-261-0734)
WX AWOS-3 at JVL (19 nm SW): PHONE 608-758-1723
WX AWOS-3PT at 57C (20 nm E): 118.125 (262-642-1845)

Nearby radio navigation aids

VOR radial/distance  VOR name  Freq  Var
JVLr030/23.8JANESVILLE VOR/DME114.3003E
BAEr237/26.7BADGER VOR/DME116.4002E
MSNr120/27.9MADISON VORTAC108.6003E

 
NDB name  Hdg/Dist  Freq  Var  ID
ROCK RIVER193/17.437101WRYV .-. -.-- ...-

Airport Services

Runway Information

Runway 9/27

Dimensions: 2100 x 30 ft. / 640 x 9 m
Surface: asphalt
Runway edge markings: 09/27 CENTER LINE REFLECTORS.
RUNWAY 9  RUNWAY 27
Traffic pattern: leftleft

Airport Ownership and Management from official FAA records

Ownership: Privately-owned
Owner: J. W. O'DONNELL & ASSOC INC.
N1402 HWY 12
FORT ATKINSON, WI 53538
Phone 414-563-9611
Manager: JOHN W. O'DONNELL
RR 2, BOX 317
FORT ATKINSON, WI 53538
Phone 414-563-9611

Airport Operational Statistics

Aircraft based on the field: 2
Single engine airplanes: 1
Ultralights: 1
    

Additional Remarks

FOR CD CTC CHICAGO ARTCC AT 630-906-8921.

Instrument Procedures

There are no published instrument procedures at 47WI.

Some nearby airports with instrument procedures:

61C - Fort Atkinson Municipal Airport (4 nm N)
KRYV - Watertown Municipal Airport (17 nm N)
KJVL - Southern Wisconsin Regional Airport (19 nm SW)
57C - East Troy Municipal Airport (20 nm E)
87Y - Blackhawk Airfield (21 nm NW)
 
Loc | Ops | Rwys | IFR | FBO | Links
Com | Nav | Svcs | Stats | Notes
Area around 47WI (Oakbrook Airport)
 
Road maps at: MapQuest Bing Google
 
Aerial photo
WARNING: Photo may not be current or correct
Aerial photo of 47WI (Oakbrook Airport)
Do you have a better or more recent aerial photo of Oakbrook Airport that you would like to share? If so, please send us your photo.

 
Sectional chart

 
Airport distance calculator
Flying to Oakbrook Airport? Find the distance to fly.

From to 47WI

Sunrise and sunset
Times for 09-Feb-2023
 Local
(UTC-6)
 Zulu
(UTC)
Morning civil twilight06:3212:32
Sunrise07:0213:02
Sunset17:1723:17
Evening civil twilight17:4723:47

Current date and time
Zulu (UTC)  09-Feb-2023 09:15:40
Local (UTC-6)  09-Feb-2023 03:15:40
 
METAR
KRYV 
17nm N 
090855Z AUTO 07005KT 7SM BKN080 OVC090 01/M01 A2985 RMK AO2 T00071015
KJVL 
19nm SW 
090855Z AUTO 05007KT 7SM -RA OVC037 02/00 A2982 RMK AO2
K57C 
20nm E 
090855Z AUTO 06005KT 4SM BR BKN039 OVC045 01/01 A2983 RMK AO2 T00080008
KBUU 
26nm SE 
090855Z AUTO 04005KT 4SM OVC036 01/00 A2983 RMK AO2 T00100004 PWINO
KMSN 
28nm NW 
090853Z AUTO 04005KT 8SM OVC070 01/M02 A2985 RMK AO2 SLP115 T00111022 58034
KUES 
31nm E 
090855Z AUTO 04005KT 3SM -DZ SCT003 BKN060 OVC070 00/00 A2986 RMK AO2
KUNU 
32nm N 
090855Z AUTO 00000KT 10SM SCT085 OVC100 00/M02 A2988 RMK AO2 T00001017
TAF
KJVL 
19nm SW 
090540Z 0906/1006 07004KT P6SM OVC090 TEMPO 0907/0911 6SM -RA FM091100 05013KT 5SM -RA BR OVC023 FM091400 04017G29KT 1 1/2SM RA BR OVC007 FM091900 35017G29KT 1/2SM RA OVC007 FM092100 32017G29KT 2SM -RASN BR OVC009 FM092300 31015G26KT P6SM VCSH OVC010
NOTAMs
Click for the latest NOTAMs
NOTAMs are issued by the DoD/FAA and will open in a separate window not controlled by AirNav.

 

 
 

Would you like to see your business listed on this page?

 If your business provides an interesting product or service to pilots, flight crews, aircraft, or users of the Oakbrook Airport, you should consider listing it here.  To start the listing process, click on the button below
 
Add a business
 

Other Pages about Oakbrook Airport

Update a link
 
Copyright © AirNav, LLC. All rights reserved. Privacy Policy  Contact